createdAt,value
2022-08-21T00:00:10.314Z,17
2022-08-21T00:10:00.251Z,17.5
2022-08-21T00:20:00.153Z,17.5
2022-08-21T00:30:00.238Z,17.5
2022-08-21T00:40:00.250Z,17.5
2022-08-21T00:50:00.219Z,17.5
2022-08-21T01:00:00.325Z,17.5
2022-08-21T01:10:00.226Z,18
2022-08-21T01:20:00.317Z,18
2022-08-21T01:30:00.221Z,17.5
2022-08-21T01:40:00.414Z,17.5
2022-08-21T01:50:00.215Z,17.5
2022-08-21T02:00:00.305Z,17.5
2022-08-21T02:10:00.412Z,17.5
2022-08-21T02:20:00.305Z,18
2022-08-21T02:30:00.412Z,17.5
2022-08-21T02:40:00.360Z,17.5
2022-08-21T02:50:00.403Z,17.5
2022-08-21T03:00:00.308Z,17.5
2022-08-21T03:10:00.396Z,17.5
2022-08-21T03:20:00.490Z,17.5
2022-08-21T03:30:00.394Z,17.5
2022-08-21T03:40:00.536Z,17.5
2022-08-21T03:50:00.383Z,17.5
2022-08-21T04:00:00.486Z,17.5
2022-08-21T04:10:00.388Z,17.5
2022-08-21T04:20:00.477Z,17.5
2022-08-21T04:30:00.377Z,17.5
2022-08-21T04:40:00.570Z,17.5
2022-08-21T04:50:00.752Z,17.5
2022-08-21T05:00:00.494Z,17
2022-08-21T05:10:00.566Z,16.5
2022-08-21T05:20:00.464Z,16.5
2022-08-21T05:30:00.564Z,16.5
2022-08-21T05:40:04.939Z,17
2022-08-21T05:50:00.558Z,17
2022-08-21T06:00:00.663Z,17
2022-08-21T06:10:00.565Z,17.5
2022-08-21T06:20:00.663Z,17.5
2022-08-21T06:30:00.550Z,18
2022-08-21T06:40:00.679Z,19
2022-08-21T06:50:00.546Z,21
2022-08-21T07:00:00.643Z,23
2022-08-21T07:10:00.544Z,28
2022-08-21T07:20:00.655Z,30
2022-08-21T07:30:00.736Z,30
2022-08-21T07:40:00.682Z,30
2022-08-21T07:50:00.736Z,30
2022-08-21T08:00:00.639Z,30
2022-08-21T08:10:00.734Z,30
2022-08-21T08:20:00.626Z,30
2022-08-21T08:30:00.726Z,30
2022-08-21T08:40:00.697Z,30
2022-08-21T08:50:00.731Z,30
2022-08-21T09:00:00.825Z,30
2022-08-21T09:10:00.726Z,37
2022-08-21T09:20:00.819Z,26.5
2022-08-21T09:30:00.719Z,25.5
2022-08-21T09:40:00.951Z,27
2022-08-21T09:50:00.724Z,27.5
2022-08-21T10:00:00.816Z,32
2022-08-21T10:10:01.081Z,32.5
2022-08-21T10:20:01.166Z,28
2022-08-21T10:30:00.759Z,23.5
2022-08-21T10:40:00.900Z,22
2022-08-21T10:50:00.750Z,21.5
2022-08-21T11:00:00.911Z,22
2022-08-21T11:10:00.943Z,21.5
2022-08-21T11:20:00.853Z,21.5
2022-08-21T11:30:00.950Z,21.5
2022-08-21T11:40:00.884Z,21.5
2022-08-21T11:50:00.935Z,22
2022-08-21T12:00:00.841Z,21.5
2022-08-21T12:10:00.937Z,21.5
2022-08-21T12:20:01.032Z,21.5
2022-08-21T12:30:00.957Z,21
2022-08-21T12:40:01.083Z,21
2022-08-21T12:50:00.945Z,21
2022-08-21T13:00:01.029Z,21.5
2022-08-21T13:10:00.937Z,21.5
2022-08-21T13:20:01.032Z,21.5
2022-08-21T13:30:00.957Z,21.5
2022-08-21T13:40:01.096Z,21.5
2022-08-21T13:50:00.939Z,21.5
2022-08-21T14:00:01.087Z,21.5
2022-08-21T14:10:01.191Z,21.5
2022-08-21T14:20:01.038Z,21.5
2022-08-21T14:30:01.630Z,21.5
2022-08-21T14:40:01.067Z,22
2022-08-21T14:50:01.118Z,22
2022-08-21T15:00:01.981Z,22
2022-08-21T15:10:01.153Z,22.5
2022-08-21T15:20:01.198Z,22.5
2022-08-21T15:30:01.121Z,21.5
2022-08-21T15:40:01.259Z,21.5
2022-08-21T15:50:01.115Z,21.5
2022-08-21T16:00:01.206Z,21.5
2022-08-21T16:10:01.105Z,21.5
2022-08-21T16:20:01.205Z,21.5
2022-08-21T16:30:01.111Z,21.5
2022-08-21T16:40:01.515Z,20.5
2022-08-21T16:50:01.299Z,20.5
2022-08-21T17:00:01.202Z,21
2022-08-21T17:10:01.300Z,21
2022-08-21T17:20:01.206Z,21
2022-08-21T17:30:01.408Z,20.5
2022-08-21T17:40:01.361Z,20.5
2022-08-21T17:50:01.407Z,20.5
2022-08-21T18:00:01.424Z,20.5
2022-08-21T18:10:01.291Z,20
2022-08-21T18:20:01.754Z,19.5
2022-08-21T18:30:01.281Z,19
2022-08-21T18:50:01.337Z,19
2022-08-21T19:00:01.427Z,19
2022-08-21T19:10:24.719Z,18.5
2022-08-21T19:20:01.426Z,18.5
2022-08-21T19:30:01.327Z,18.5
2022-08-21T19:40:01.495Z,18.5
2022-08-21T19:50:01.318Z,18.5
2022-08-21T20:00:01.418Z,18.5
2022-08-21T20:10:01.313Z,18.5
2022-08-21T20:20:01.423Z,18
2022-08-21T20:30:01.511Z,17.5
2022-08-21T20:40:01.459Z,18
2022-08-21T20:50:01.509Z,19
2022-08-21T21:00:01.457Z,19
2022-08-21T21:10:01.503Z,19
2022-08-21T21:20:01.402Z,19.5
2022-08-21T21:30:01.502Z,18.5
2022-08-21T21:40:01.448Z,19
2022-08-21T21:50:01.488Z,18.5
2022-08-21T22:00:01.589Z,18.5
2022-08-21T22:10:05.619Z,18.5
2022-08-21T22:20:01.578Z,18.5
2022-08-21T22:30:01.474Z,19
2022-08-21T22:40:01.610Z,19
2022-08-21T23:00:01.624Z,20
2022-08-21T23:10:01.939Z,20
2022-08-21T23:20:01.592Z,20
2022-08-21T23:30:01.689Z,20
2022-08-21T23:40:02.904Z,20
2022-08-21T23:50:13.683Z,20
